sensor_id;sensor_type;location;lat;lon;timestamp;P1;durP1;ratioP1;P2;durP2;ratioP2
20445;SDS011;10382;49.140;9.234;2023-02-08T00:00:51;29.25;;;12.30;;
20445;SDS011;10382;49.140;9.234;2023-02-08T00:03:17;29.27;;;12.48;;
20445;SDS011;10382;49.140;9.234;2023-02-08T00:05:44;30.73;;;13.43;;
20445;SDS011;10382;49.140;9.234;2023-02-08T00:08:11;24.90;;;12.73;;
20445;SDS011;10382;49.140;9.234;2023-02-08T00:10:38;28.70;;;12.10;;
20445;SDS011;10382;49.140;9.234;2023-02-08T00:13:05;29.77;;;12.40;;
20445;SDS011;10382;49.140;9.234;2023-02-08T00:15:33;19.05;;;9.57;;
20445;SDS011;10382;49.140;9.234;2023-02-08T00:18:00;22.42;;;10.07;;
20445;SDS011;10382;49.140;9.234;2023-02-08T00:20:27;29.33;;;12.02;;
20445;SDS011;10382;49.140;9.234;2023-02-08T00:22:54;21.27;;;11.60;;
20445;SDS011;10382;49.140;9.234;2023-02-08T00:25:21;20.67;;;11.40;;
20445;SDS011;10382;49.140;9.234;2023-02-08T00:27:48;19.80;;;10.05;;
20445;SDS011;10382;49.140;9.234;2023-02-08T00:30:15;28.30;;;10.70;;
20445;SDS011;10382;49.140;9.234;2023-02-08T00:32:43;22.02;;;11.13;;
20445;SDS011;10382;49.140;9.234;2023-02-08T00:35:10;23.10;;;11.00;;
20445;SDS011;10382;49.140;9.234;2023-02-08T00:37:37;24.23;;;11.52;;
20445;SDS011;10382;49.140;9.234;2023-02-08T00:40:04;27.35;;;12.38;;
20445;SDS011;10382;49.140;9.234;2023-02-08T00:42:31;19.48;;;9.52;;
20445;SDS011;10382;49.140;9.234;2023-02-08T00:44:58;18.40;;;9.40;;
20445;SDS011;10382;49.140;9.234;2023-02-08T00:47:25;20.92;;;9.90;;
20445;SDS011;10382;49.140;9.234;2023-02-08T00:49:54;19.48;;;11.00;;
20445;SDS011;10382;49.140;9.234;2023-02-08T00:52:20;20.40;;;10.20;;
20445;SDS011;10382;49.140;9.234;2023-02-08T00:54:47;23.58;;;10.75;;
20445;SDS011;10382;49.140;9.234;2023-02-08T00:57:14;20.20;;;10.65;;
20445;SDS011;10382;49.140;9.234;2023-02-08T00:59:41;20.63;;;10.15;;
20445;SDS011;10382;49.140;9.234;2023-02-08T01:02:08;20.80;;;10.65;;
20445;SDS011;10382;49.140;9.234;2023-02-08T01:04:35;22.67;;;10.98;;
20445;SDS011;10382;49.140;9.234;2023-02-08T01:07:05;17.60;;;9.35;;
20445;SDS011;10382;49.140;9.234;2023-02-08T01:09:33;19.10;;;9.80;;
20445;SDS011;10382;49.140;9.234;2023-02-08T01:12:00;19.85;;;11.05;;
20445;SDS011;10382;49.140;9.234;2023-02-08T01:14:27;22.45;;;9.65;;
20445;SDS011;10382;49.140;9.234;2023-02-08T01:16:54;14.52;;;9.00;;
20445;SDS011;10382;49.140;9.234;2023-02-08T01:19:21;21.15;;;9.48;;
20445;SDS011;10382;49.140;9.234;2023-02-08T01:21:48;48.20;;;11.02;;
20445;SDS011;10382;49.140;9.234;2023-02-08T01:24:16;35.10;;;11.40;;
20445;SDS011;10382;49.140;9.234;2023-02-08T01:26:43;19.55;;;11.38;;
20445;SDS011;10382;49.140;9.234;2023-02-08T01:29:10;18.95;;;9.60;;
20445;SDS011;10382;49.140;9.234;2023-02-08T01:31:37;19.85;;;10.05;;
20445;SDS011;10382;49.140;9.234;2023-02-08T01:34:06;19.70;;;8.80;;
20445;SDS011;10382;49.140;9.234;2023-02-08T01:36:34;17.25;;;10.05;;
20445;SDS011;10382;49.140;9.234;2023-02-08T01:39:01;21.38;;;9.23;;
20445;SDS011;10382;49.140;9.234;2023-02-08T01:41:31;20.70;;;9.48;;
20445;SDS011;10382;49.140;9.234;2023-02-08T01:44:00;17.25;;;9.10;;
20445;SDS011;10382;49.140;9.234;2023-02-08T01:46:32;16.75;;;8.90;;
20445;SDS011;10382;49.140;9.234;2023-02-08T01:49:01;16.13;;;8.75;;
20445;SDS011;10382;49.140;9.234;2023-02-08T01:51:34;19.58;;;9.65;;
20445;SDS011;10382;49.140;9.234;2023-02-08T01:54:06;21.92;;;9.52;;
20445;SDS011;10382;49.140;9.234;2023-02-08T01:56:36;21.17;;;9.32;;
20445;SDS011;10382;49.140;9.234;2023-02-08T01:59:08;23.35;;;11.23;;
20445;SDS011;10382;49.140;9.234;2023-02-08T02:01:37;19.85;;;9.50;;
20445;SDS011;10382;49.140;9.234;2023-02-08T02:04:05;17.50;;;8.85;;
20445;SDS011;10382;49.140;9.234;2023-02-08T02:06:34;20.02;;;9.85;;
20445;SDS011;10382;49.140;9.234;2023-02-08T02:09:10;26.98;;;9.25;;
20445;SDS011;10382;49.140;9.234;2023-02-08T02:11:43;20.50;;;10.80;;
20445;SDS011;10382;49.140;9.234;2023-02-08T02:14:10;21.42;;;10.40;;
20445;SDS011;10382;49.140;9.234;2023-02-08T02:16:37;20.75;;;10.43;;
20445;SDS011;10382;49.140;9.234;2023-02-08T02:19:04;20.75;;;9.98;;
20445;SDS011;10382;49.140;9.234;2023-02-08T02:21:55;18.55;;;9.10;;
20445;SDS011;10382;49.140;9.234;2023-02-08T02:30:33;16.77;;;8.75;;
20445;SDS011;10382;49.140;9.234;2023-02-08T02:33:20;18.05;;;8.98;;
20445;SDS011;10382;49.140;9.234;2023-02-08T02:35:59;17.17;;;9.38;;
20445;SDS011;10382;49.140;9.234;2023-02-08T02:38:31;21.02;;;10.00;;
20445;SDS011;10382;49.140;9.234;2023-02-08T02:41:09;20.90;;;9.38;;
20445;SDS011;10382;49.140;9.234;2023-02-08T02:44:00;25.90;;;8.20;;
20445;SDS011;10382;49.140;9.234;2023-02-08T02:46:31;13.27;;;8.48;;
20445;SDS011;10382;49.140;9.234;2023-02-08T02:49:07;12.98;;;8.90;;
20445;SDS011;10382;49.140;9.234;2023-02-08T02:51:42;19.85;;;9.77;;
20445;SDS011;10382;49.140;9.234;2023-02-08T02:54:15;23.27;;;9.50;;
20445;SDS011;10382;49.140;9.234;2023-02-08T02:56:46;15.05;;;8.57;;
20445;SDS011;10382;49.140;9.234;2023-02-08T02:59:16;20.67;;;9.45;;
20445;SDS011;10382;49.140;9.234;2023-02-08T03:01:45;16.83;;;9.70;;
20445;SDS011;10382;49.140;9.234;2023-02-08T03:04:14;19.35;;;10.00;;
20445;SDS011;10382;49.140;9.234;2023-02-08T03:06:49;21.25;;;10.07;;
20445;SDS011;10382;49.140;9.234;2023-02-08T03:09:26;17.02;;;10.23;;
20445;SDS011;10382;49.140;9.234;2023-02-08T03:12:02;19.48;;;10.52;;
20445;SDS011;10382;49.140;9.234;2023-02-08T03:14:37;21.40;;;10.38;;
20445;SDS011;10382;49.140;9.234;2023-02-08T03:17:16;19.83;;;9.68;;
20445;SDS011;10382;49.140;9.234;2023-02-08T03:19:56;18.70;;;9.52;;
20445;SDS011;10382;49.140;9.234;2023-02-08T03:22:28;16.45;;;9.90;;
20445;SDS011;10382;49.140;9.234;2023-02-08T03:25:04;18.10;;;10.25;;
20445;SDS011;10382;49.140;9.234;2023-02-08T03:27:36;24.23;;;9.77;;
20445;SDS011;10382;49.140;9.234;2023-02-08T03:30:10;20.95;;;10.55;;
20445;SDS011;10382;49.140;9.234;2023-02-08T03:32:41;29.60;;;11.52;;
20445;SDS011;10382;49.140;9.234;2023-02-08T03:35:14;17.73;;;9.73;;
20445;SDS011;10382;49.140;9.234;2023-02-08T03:37:46;23.30;;;11.48;;
20445;SDS011;10382;49.140;9.234;2023-02-08T03:40:19;16.60;;;10.02;;
20445;SDS011;10382;49.140;9.234;2023-02-08T03:42:48;23.88;;;11.70;;
20445;SDS011;10382;49.140;9.234;2023-02-08T03:45:18;29.40;;;12.02;;
20445;SDS011;10382;49.140;9.234;2023-02-08T03:47:48;26.30;;;12.48;;
20445;SDS011;10382;49.140;9.234;2023-02-08T03:50:19;33.85;;;13.15;;
20445;SDS011;10382;49.140;9.234;2023-02-08T03:52:47;19.42;;;11.00;;
20445;SDS011;10382;49.140;9.234;2023-02-08T03:55:17;22.85;;;10.05;;
20445;SDS011;10382;49.140;9.234;2023-02-08T03:57:49;17.73;;;10.05;;
20445;SDS011;10382;49.140;9.234;2023-02-08T04:00:19;20.00;;;11.35;;
20445;SDS011;10382;49.140;9.234;2023-02-08T04:02:50;20.95;;;10.82;;
20445;SDS011;10382;49.140;9.234;2023-02-08T04:05:21;27.17;;;11.07;;
20445;SDS011;10382;49.140;9.234;2023-02-08T04:07:49;23.10;;;11.30;;
20445;SDS011;10382;49.140;9.234;2023-02-08T04:10:16;21.23;;;10.38;;
20445;SDS011;10382;49.140;9.234;2023-02-08T04:12:43;33.10;;;12.45;;
20445;SDS011;10382;49.140;9.234;2023-02-08T04:15:12;21.17;;;10.52;;
20445;SDS011;10382;49.140;9.234;2023-02-08T04:17:39;27.52;;;12.07;;
20445;SDS011;10382;49.140;9.234;2023-02-08T04:20:06;18.08;;;10.05;;
20445;SDS011;10382;49.140;9.234;2023-02-08T04:22:35;34.17;;;11.77;;
20445;SDS011;10382;49.140;9.234;2023-02-08T04:25:03;23.52;;;11.02;;
20445;SDS011;10382;49.140;9.234;2023-02-08T04:27:30;23.65;;;9.85;;
20445;SDS011;10382;49.140;9.234;2023-02-08T04:29:57;19.75;;;11.55;;
20445;SDS011;10382;49.140;9.234;2023-02-08T04:32:24;21.92;;;11.10;;
20445;SDS011;10382;49.140;9.234;2023-02-08T04:34:51;21.58;;;11.23;;
20445;SDS011;10382;49.140;9.234;2023-02-08T04:37:18;24.15;;;12.45;;
20445;SDS011;10382;49.140;9.234;2023-02-08T04:39:46;20.65;;;11.70;;
20445;SDS011;10382;49.140;9.234;2023-02-08T04:42:13;20.33;;;11.95;;
20445;SDS011;10382;49.140;9.234;2023-02-08T04:44:39;16.92;;;10.35;;
20445;SDS011;10382;49.140;9.234;2023-02-08T04:47:06;27.80;;;11.95;;
20445;SDS011;10382;49.140;9.234;2023-02-08T04:49:33;21.52;;;11.93;;
20445;SDS011;10382;49.140;9.234;2023-02-08T04:52:00;21.90;;;11.50;;
20445;SDS011;10382;49.140;9.234;2023-02-08T04:54:27;21.60;;;12.05;;
20445;SDS011;10382;49.140;9.234;2023-02-08T04:56:55;22.35;;;12.10;;
20445;SDS011;10382;49.140;9.234;2023-02-08T04:59:22;21.52;;;11.05;;
20445;SDS011;10382;49.140;9.234;2023-02-08T05:01:49;23.10;;;13.52;;
20445;SDS011;10382;49.140;9.234;2023-02-08T05:04:16;26.50;;;12.70;;
20445;SDS011;10382;49.140;9.234;2023-02-08T05:06:42;26.85;;;10.13;;
20445;SDS011;10382;49.140;9.234;2023-02-08T05:09:09;22.40;;;11.00;;
20445;SDS011;10382;49.140;9.234;2023-02-08T05:11:37;26.23;;;9.68;;
20445;SDS011;10382;49.140;9.234;2023-02-08T05:14:05;17.52;;;10.00;;
20445;SDS011;10382;49.140;9.234;2023-02-08T05:16:32;21.65;;;10.77;;
20445;SDS011;10382;49.140;9.234;2023-02-08T05:18:59;21.48;;;10.40;;
20445;SDS011;10382;49.140;9.234;2023-02-08T05:21:26;20.77;;;10.20;;
20445;SDS011;10382;49.140;9.234;2023-02-08T05:23:53;38.65;;;10.75;;
20445;SDS011;10382;49.140;9.234;2023-02-08T05:26:19;18.90;;;9.18;;
20445;SDS011;10382;49.140;9.234;2023-02-08T05:28:46;24.30;;;11.25;;
20445;SDS011;10382;49.140;9.234;2023-02-08T05:31:16;28.70;;;10.80;;
20445;SDS011;10382;49.140;9.234;2023-02-08T05:33:45;22.00;;;12.15;;
20445;SDS011;10382;49.140;9.234;2023-02-08T05:36:12;20.05;;;10.65;;
20445;SDS011;10382;49.140;9.234;2023-02-08T05:38:38;27.63;;;11.48;;
20445;SDS011;10382;49.140;9.234;2023-02-08T05:41:05;21.33;;;11.23;;
20445;SDS011;10382;49.140;9.234;2023-02-08T05:43:32;24.13;;;11.48;;
20445;SDS011;10382;49.140;9.234;2023-02-08T05:45:59;25.08;;;11.27;;
20445;SDS011;10382;49.140;9.234;2023-02-08T05:48:28;25.88;;;11.35;;
20445;SDS011;10382;49.140;9.234;2023-02-08T05:50:55;27.10;;;9.70;;
20445;SDS011;10382;49.140;9.234;2023-02-08T05:53:23;28.45;;;10.68;;
20445;SDS011;10382;49.140;9.234;2023-02-08T05:55:51;28.55;;;11.02;;
20445;SDS011;10382;49.140;9.234;2023-02-08T05:58:18;23.00;;;11.95;;
20445;SDS011;10382;49.140;9.234;2023-02-08T06:00:45;28.23;;;13.48;;
20445;SDS011;10382;49.140;9.234;2023-02-08T06:03:12;21.88;;;11.45;;
20445;SDS011;10382;49.140;9.234;2023-02-08T06:05:40;30.40;;;13.10;;
20445;SDS011;10382;49.140;9.234;2023-02-08T06:08:08;19.38;;;9.95;;
20445;SDS011;10382;49.140;9.234;2023-02-08T06:10:35;20.23;;;10.35;;
20445;SDS011;10382;49.140;9.234;2023-02-08T06:13:02;21.70;;;12.15;;
20445;SDS011;10382;49.140;9.234;2023-02-08T06:15:30;19.05;;;9.82;;
20445;SDS011;10382;49.140;9.234;2023-02-08T06:17:57;29.35;;;13.00;;
20445;SDS011;10382;49.140;9.234;2023-02-08T06:20:23;23.45;;;11.18;;
20445;SDS011;10382;49.140;9.234;2023-02-08T06:22:52;27.52;;;12.65;;
20445;SDS011;10382;49.140;9.234;2023-02-08T06:25:20;24.98;;;11.48;;
20445;SDS011;10382;49.140;9.234;2023-02-08T06:27:46;32.95;;;15.20;;
20445;SDS011;10382;49.140;9.234;2023-02-08T06:30:13;19.45;;;11.27;;
20445;SDS011;10382;49.140;9.234;2023-02-08T06:32:41;31.80;;;12.60;;
20445;SDS011;10382;49.140;9.234;2023-02-08T06:35:08;24.67;;;12.07;;
20445;SDS011;10382;49.140;9.234;2023-02-08T06:37:35;24.00;;;12.48;;
20445;SDS011;10382;49.140;9.234;2023-02-08T06:40:04;20.85;;;11.43;;
20445;SDS011;10382;49.140;9.234;2023-02-08T06:42:31;21.63;;;11.63;;
20445;SDS011;10382;49.140;9.234;2023-02-08T06:44:58;20.50;;;11.50;;
20445;SDS011;10382;49.140;9.234;2023-02-08T06:47:25;29.52;;;12.15;;
20445;SDS011;10382;49.140;9.234;2023-02-08T06:49:52;26.05;;;12.73;;
20445;SDS011;10382;49.140;9.234;2023-02-08T06:52:19;23.25;;;13.13;;
20445;SDS011;10382;49.140;9.234;2023-02-08T06:54:46;27.05;;;13.05;;
20445;SDS011;10382;49.140;9.234;2023-02-08T06:57:15;21.58;;;11.65;;
20445;SDS011;10382;49.140;9.234;2023-02-08T06:59:42;27.15;;;12.57;;
20445;SDS011;10382;49.140;9.234;2023-02-08T07:02:10;21.33;;;11.02;;
20445;SDS011;10382;49.140;9.234;2023-02-08T07:04:38;36.85;;;14.40;;
20445;SDS011;10382;49.140;9.234;2023-02-08T07:07:06;25.25;;;12.00;;
20445;SDS011;10382;49.140;9.234;2023-02-08T07:09:35;19.80;;;11.25;;
20445;SDS011;10382;49.140;9.234;2023-02-08T07:12:02;29.48;;;12.25;;
20445;SDS011;10382;49.140;9.234;2023-02-08T07:14:30;27.85;;;14.25;;
20445;SDS011;10382;49.140;9.234;2023-02-08T07:16:58;28.40;;;14.75;;
20445;SDS011;10382;49.140;9.234;2023-02-08T07:19:25;28.85;;;13.52;;
20445;SDS011;10382;49.140;9.234;2023-02-08T07:21:52;44.40;;;15.68;;
20445;SDS011;10382;49.140;9.234;2023-02-08T07:24:19;30.65;;;13.80;;
20445;SDS011;10382;49.140;9.234;2023-02-08T07:26:46;30.77;;;15.10;;
20445;SDS011;10382;49.140;9.234;2023-02-08T07:29:13;28.88;;;13.05;;
20445;SDS011;10382;49.140;9.234;2023-02-08T07:31:41;26.90;;;13.93;;
20445;SDS011;10382;49.140;9.234;2023-02-08T07:34:08;25.27;;;11.55;;
20445;SDS011;10382;49.140;9.234;2023-02-08T07:36:35;30.35;;;12.45;;
20445;SDS011;10382;49.140;9.234;2023-02-08T07:39:02;35.28;;;13.18;;
20445;SDS011;10382;49.140;9.234;2023-02-08T07:41:30;28.48;;;11.95;;
20445;SDS011;10382;49.140;9.234;2023-02-08T07:43:58;23.73;;;12.93;;
20445;SDS011;10382;49.140;9.234;2023-02-08T07:46:25;28.90;;;13.85;;
20445;SDS011;10382;49.140;9.234;2023-02-08T07:48:56;29.77;;;14.50;;
20445;SDS011;10382;49.140;9.234;2023-02-08T07:51:23;25.90;;;13.27;;
20445;SDS011;10382;49.140;9.234;2023-02-08T07:53:50;34.95;;;14.85;;
20445;SDS011;10382;49.140;9.234;2023-02-08T07:56:17;29.55;;;16.00;;
20445;SDS011;10382;49.140;9.234;2023-02-08T07:58:44;31.90;;;14.18;;
20445;SDS011;10382;49.140;9.234;2023-02-08T08:01:11;32.35;;;14.65;;
20445;SDS011;10382;49.140;9.234;2023-02-08T08:03:38;43.10;;;15.50;;
20445;SDS011;10382;49.140;9.234;2023-02-08T08:06:06;30.90;;;14.10;;
20445;SDS011;10382;49.140;9.234;2023-02-08T08:08:33;32.43;;;15.17;;
20445;SDS011;10382;49.140;9.234;2023-02-08T08:11:00;22.90;;;13.53;;
20445;SDS011;10382;49.140;9.234;2023-02-08T08:13:26;32.67;;;17.93;;
20445;SDS011;10382;49.140;9.234;2023-02-08T08:15:53;33.63;;;15.57;;
20445;SDS011;10382;49.140;9.234;2023-02-08T08:18:20;28.37;;;15.47;;
20445;SDS011;10382;49.140;9.234;2023-02-08T08:20:47;39.20;;;16.63;;
20445;SDS011;10382;49.140;9.234;2023-02-08T08:23:15;31.23;;;17.20;;
20445;SDS011;10382;49.140;9.234;2023-02-08T08:25:43;33.37;;;16.57;;
20445;SDS011;10382;49.140;9.234;2023-02-08T08:28:10;27.00;;;15.27;;
20445;SDS011;10382;49.140;9.234;2023-02-08T08:30:37;31.83;;;15.23;;
20445;SDS011;10382;49.140;9.234;2023-02-08T08:33:07;34.57;;;16.87;;
20445;SDS011;10382;49.140;9.234;2023-02-08T08:35:34;32.50;;;15.30;;
20445;SDS011;10382;49.140;9.234;2023-02-08T08:38:01;34.23;;;16.90;;
20445;SDS011;10382;49.140;9.234;2023-02-08T08:40:29;31.50;;;14.83;;
20445;SDS011;10382;49.140;9.234;2023-02-08T08:42:56;40.10;;;18.30;;
20445;SDS011;10382;49.140;9.234;2023-02-08T08:45:23;30.67;;;16.80;;
20445;SDS011;10382;49.140;9.234;2023-02-08T08:47:50;36.10;;;16.97;;
20445;SDS011;10382;49.140;9.234;2023-02-08T08:50:17;29.27;;;16.70;;
20445;SDS011;10382;49.140;9.234;2023-02-08T08:52:44;36.30;;;17.97;;
20445;SDS011;10382;49.140;9.234;2023-02-08T08:55:11;30.23;;;15.07;;
20445;SDS011;10382;49.140;9.234;2023-02-08T08:57:39;30.10;;;16.17;;
20445;SDS011;10382;49.140;9.234;2023-02-08T09:00:07;24.33;;;14.63;;
20445;SDS011;10382;49.140;9.234;2023-02-08T09:02:34;43.00;;;19.87;;
20445;SDS011;10382;49.140;9.234;2023-02-08T09:05:01;28.67;;;17.00;;
20445;SDS011;10382;49.140;9.234;2023-02-08T09:07:30;40.93;;;18.70;;
20445;SDS011;10382;49.140;9.234;2023-02-08T09:09:57;25.43;;;14.33;;
20445;SDS011;10382;49.140;9.234;2023-02-08T09:12:24;28.63;;;16.80;;
20445;SDS011;10382;49.140;9.234;2023-02-08T09:14:53;37.70;;;17.43;;
20445;SDS011;10382;49.140;9.234;2023-02-08T09:17:19;45.20;;;18.00;;
20445;SDS011;10382;49.140;9.234;2023-02-08T09:19:46;47.67;;;18.73;;
20445;SDS011;10382;49.140;9.234;2023-02-08T09:22:13;33.20;;;17.03;;
20445;SDS011;10382;49.140;9.234;2023-02-08T09:24:40;34.03;;;16.67;;
20445;SDS011;10382;49.140;9.234;2023-02-08T09:27:07;29.90;;;15.80;;
20445;SDS011;10382;49.140;9.234;2023-02-08T09:29:34;26.07;;;14.73;;
20445;SDS011;10382;49.140;9.234;2023-02-08T09:32:02;26.80;;;15.27;;
20445;SDS011;10382;49.140;9.234;2023-02-08T09:34:29;28.60;;;15.10;;
20445;SDS011;10382;49.140;9.234;2023-02-08T09:36:55;31.07;;;15.20;;
20445;SDS011;10382;49.140;9.234;2023-02-08T09:39:23;31.60;;;15.17;;
20445;SDS011;10382;49.140;9.234;2023-02-08T09:42:00;37.90;;;17.03;;
20445;SDS011;10382;49.140;9.234;2023-02-08T09:44:54;32.00;;;16.10;;
20445;SDS011;10382;49.140;9.234;2023-02-08T09:47:30;38.03;;;15.63;;
20445;SDS011;10382;49.140;9.234;2023-02-08T09:50:00;29.53;;;14.70;;
20445;SDS011;10382;49.140;9.234;2023-02-08T09:52:32;25.80;;;14.77;;
20445;SDS011;10382;49.140;9.234;2023-02-08T09:55:03;25.47;;;13.43;;
20445;SDS011;10382;49.140;9.234;2023-02-08T09:57:42;50.37;;;19.93;;
20445;SDS011;10382;49.140;9.234;2023-02-08T10:00:11;30.00;;;14.87;;
20445;SDS011;10382;49.140;9.234;2023-02-08T10:02:43;38.53;;;16.97;;
20445;SDS011;10382;49.140;9.234;2023-02-08T10:05:13;37.33;;;16.33;;
20445;SDS011;10382;49.140;9.234;2023-02-08T10:07:44;29.60;;;14.67;;
20445;SDS011;10382;49.140;9.234;2023-02-08T10:10:13;37.30;;;14.47;;
20445;SDS011;10382;49.140;9.234;2023-02-08T10:12:42;36.53;;;14.23;;
20445;SDS011;10382;49.140;9.234;2023-02-08T10:15:20;34.13;;;15.70;;
20445;SDS011;10382;49.140;9.234;2023-02-08T10:18:00;26.60;;;13.40;;
20445;SDS011;10382;49.140;9.234;2023-02-08T10:20:55;30.77;;;13.27;;
20445;SDS011;10382;49.140;9.234;2023-02-08T10:23:36;29.90;;;13.67;;
20445;SDS011;10382;49.140;9.234;2023-02-08T10:26:13;24.73;;;12.93;;
20445;SDS011;10382;49.140;9.234;2023-02-08T10:28:59;31.57;;;14.83;;
20445;SDS011;10382;49.140;9.234;2023-02-08T10:31:52;26.17;;;13.37;;
20445;SDS011;10382;49.140;9.234;2023-02-08T10:34:34;24.37;;;13.10;;
20445;SDS011;10382;49.140;9.234;2023-02-08T10:37:10;35.20;;;14.67;;
20445;SDS011;10382;49.140;9.234;2023-02-08T10:39:40;22.63;;;12.13;;
20445;SDS011;10382;49.140;9.234;2023-02-08T10:42:12;28.97;;;13.27;;
20445;SDS011;10382;49.140;9.234;2023-02-08T10:44:45;31.30;;;13.53;;
20445;SDS011;10382;49.140;9.234;2023-02-08T10:47:21;24.03;;;12.60;;
20445;SDS011;10382;49.140;9.234;2023-02-08T10:50:00;27.07;;;11.93;;
20445;SDS011;10382;49.140;9.234;2023-02-08T10:52:29;23.23;;;11.60;;
20445;SDS011;10382;49.140;9.234;2023-02-08T10:54:56;28.23;;;12.50;;
20445;SDS011;10382;49.140;9.234;2023-02-08T10:57:24;23.63;;;12.27;;
20445;SDS011;10382;49.140;9.234;2023-02-08T10:59:56;32.37;;;13.33;;
20445;SDS011;10382;49.140;9.234;2023-02-08T11:02:27;31.70;;;14.10;;
20445;SDS011;10382;49.140;9.234;2023-02-08T11:04:58;26.80;;;13.23;;
20445;SDS011;10382;49.140;9.234;2023-02-08T11:07:27;26.03;;;12.67;;
20445;SDS011;10382;49.140;9.234;2023-02-08T11:09:57;26.47;;;12.53;;
20445;SDS011;10382;49.140;9.234;2023-02-08T11:12:52;32.70;;;13.80;;
20445;SDS011;10382;49.140;9.234;2023-02-08T11:15:22;28.87;;;12.80;;
20445;SDS011;10382;49.140;9.234;2023-02-08T11:17:54;20.60;;;11.50;;
20445;SDS011;10382;49.140;9.234;2023-02-08T11:20:26;39.73;;;12.90;;
20445;SDS011;10382;49.140;9.234;2023-02-08T11:22:57;43.77;;;16.83;;
20445;SDS011;10382;49.140;9.234;2023-02-08T11:25:35;33.53;;;12.07;;
20445;SDS011;10382;49.140;9.234;2023-02-08T11:28:03;32.40;;;12.47;;
20445;SDS011;10382;49.140;9.234;2023-02-08T11:30:49;25.30;;;11.50;;
20445;SDS011;10382;49.140;9.234;2023-02-08T11:33:21;24.37;;;12.30;;
20445;SDS011;10382;49.140;9.234;2023-02-08T11:35:57;24.47;;;11.70;;
20445;SDS011;10382;49.140;9.234;2023-02-08T11:38:30;24.87;;;11.80;;
20445;SDS011;10382;49.140;9.234;2023-02-08T11:41:00;33.30;;;13.23;;
20445;SDS011;10382;49.140;9.234;2023-02-08T11:43:30;32.53;;;13.10;;
20445;SDS011;10382;49.140;9.234;2023-02-08T11:45:59;28.13;;;11.50;;
20445;SDS011;10382;49.140;9.234;2023-02-08T11:48:31;31.40;;;12.73;;
20445;SDS011;10382;49.140;9.234;2023-02-08T11:51:06;25.30;;;12.00;;
20445;SDS011;10382;49.140;9.234;2023-02-08T11:53:34;26.87;;;11.50;;
20445;SDS011;10382;49.140;9.234;2023-02-08T11:56:04;43.30;;;13.50;;
20445;SDS011;10382;49.140;9.234;2023-02-08T11:58:41;34.30;;;14.00;;
20445;SDS011;10382;49.140;9.234;2023-02-08T12:01:20;28.90;;;11.70;;
20445;SDS011;10382;49.140;9.234;2023-02-08T12:03:47;34.77;;;13.47;;
20445;SDS011;10382;49.140;9.234;2023-02-08T12:06:20;24.27;;;10.57;;
20445;SDS011;10382;49.140;9.234;2023-02-08T12:09:15;22.03;;;11.13;;
20445;SDS011;10382;49.140;9.234;2023-02-08T12:11:53;25.77;;;11.10;;
20445;SDS011;10382;49.140;9.234;2023-02-08T12:14:35;22.17;;;10.90;;
20445;SDS011;10382;49.140;9.234;2023-02-08T12:20:25;26.33;;;12.10;;
20445;SDS011;10382;49.140;9.234;2023-02-08T12:23:10;32.93;;;12.90;;
20445;SDS011;10382;49.140;9.234;2023-02-08T12:25:50;26.43;;;9.67;;
20445;SDS011;10382;49.140;9.234;2023-02-08T12:28:29;32.50;;;12.23;;
20445;SDS011;10382;49.140;9.234;2023-02-08T12:31:05;25.80;;;11.00;;
20445;SDS011;10382;49.140;9.234;2023-02-08T12:33:41;36.53;;;11.70;;
20445;SDS011;10382;49.140;9.234;2023-02-08T12:36:26;23.80;;;10.13;;
20445;SDS011;10382;49.140;9.234;2023-02-08T12:39:09;27.33;;;10.60;;
20445;SDS011;10382;49.140;9.234;2023-02-08T12:42:06;26.57;;;11.03;;
20445;SDS011;10382;49.140;9.234;2023-02-08T12:44:55;32.77;;;12.60;;
20445;SDS011;10382;49.140;9.234;2023-02-08T12:47:43;17.40;;;8.43;;
20445;SDS011;10382;49.140;9.234;2023-02-08T12:50:23;25.37;;;10.30;;
20445;SDS011;10382;49.140;9.234;2023-02-08T12:52:57;33.37;;;13.77;;
20445;SDS011;10382;49.140;9.234;2023-02-08T12:55:29;27.03;;;10.93;;
20445;SDS011;10382;49.140;9.234;2023-02-08T12:58:02;24.13;;;10.10;;
20445;SDS011;10382;49.140;9.234;2023-02-08T13:00:37;24.83;;;11.13;;
20445;SDS011;10382;49.140;9.234;2023-02-08T13:03:08;26.13;;;11.10;;
20445;SDS011;10382;49.140;9.234;2023-02-08T13:05:42;19.30;;;9.37;;
20445;SDS011;10382;49.140;9.234;2023-02-08T13:08:24;19.57;;;9.23;;
20445;SDS011;10382;49.140;9.234;2023-02-08T13:10:57;25.73;;;10.60;;
20445;SDS011;10382;49.140;9.234;2023-02-08T13:13:27;31.73;;;11.30;;
20445;SDS011;10382;49.140;9.234;2023-02-08T13:15:59;26.37;;;11.03;;
20445;SDS011;10382;49.140;9.234;2023-02-08T13:18:34;27.30;;;9.47;;
20445;SDS011;10382;49.140;9.234;2023-02-08T13:21:04;21.70;;;10.17;;
20445;SDS011;10382;49.140;9.234;2023-02-08T13:23:33;25.87;;;11.03;;
20445;SDS011;10382;49.140;9.234;2023-02-08T13:26:06;21.83;;;10.40;;
20445;SDS011;10382;49.140;9.234;2023-02-08T13:28:36;33.37;;;11.37;;
20445;SDS011;10382;49.140;9.234;2023-02-08T13:31:05;24.00;;;10.37;;
20445;SDS011;10382;49.140;9.234;2023-02-08T13:33:40;29.73;;;10.00;;
20445;SDS011;10382;49.140;9.234;2023-02-08T13:36:17;26.90;;;11.23;;
20445;SDS011;10382;49.140;9.234;2023-02-08T13:38:46;36.97;;;13.80;;
20445;SDS011;10382;49.140;9.234;2023-02-08T13:41:15;18.80;;;9.07;;
20445;SDS011;10382;49.140;9.234;2023-02-08T13:43:45;27.63;;;11.80;;
20445;SDS011;10382;49.140;9.234;2023-02-08T13:46:16;22.43;;;9.33;;
20445;SDS011;10382;49.140;9.234;2023-02-08T13:48:45;26.93;;;10.97;;
20445;SDS011;10382;49.140;9.234;2023-02-08T13:54:17;31.73;;;9.77;;
20445;SDS011;10382;49.140;9.234;2023-02-08T13:56:46;28.03;;;8.43;;
20445;SDS011;10382;49.140;9.234;2023-02-08T13:59:28;25.77;;;9.63;;
20445;SDS011;10382;49.140;9.234;2023-02-08T14:02:09;39.77;;;11.50;;
20445;SDS011;10382;49.140;9.234;2023-02-08T14:04:49;27.67;;;10.53;;
20445;SDS011;10382;49.140;9.234;2023-02-08T14:07:22;19.60;;;8.67;;
20445;SDS011;10382;49.140;9.234;2023-02-08T14:12:57;36.83;;;15.97;;
20445;SDS011;10382;49.140;9.234;2023-02-08T14:15:28;28.07;;;9.40;;
20445;SDS011;10382;49.140;9.234;2023-02-08T14:17:57;31.60;;;10.87;;
20445;SDS011;10382;49.140;9.234;2023-02-08T14:20:26;28.90;;;9.87;;
20445;SDS011;10382;49.140;9.234;2023-02-08T14:22:57;34.77;;;10.90;;
20445;SDS011;10382;49.140;9.234;2023-02-08T14:25:26;19.00;;;8.17;;
20445;SDS011;10382;49.140;9.234;2023-02-08T14:27:57;28.33;;;9.80;;
20445;SDS011;10382;49.140;9.234;2023-02-08T14:30:26;33.73;;;11.20;;
20445;SDS011;10382;49.140;9.234;2023-02-08T14:33:07;37.00;;;9.83;;
20445;SDS011;10382;49.140;9.234;2023-02-08T14:35:41;42.00;;;12.07;;
20445;SDS011;10382;49.140;9.234;2023-02-08T14:38:48;28.23;;;9.63;;
20445;SDS011;10382;49.140;9.234;2023-02-08T14:41:45;22.33;;;8.60;;
20445;SDS011;10382;49.140;9.234;2023-02-08T14:50:35;22.30;;;9.00;;
20445;SDS011;10382;49.140;9.234;2023-02-08T14:53:14;40.77;;;12.07;;
20445;SDS011;10382;49.140;9.234;2023-02-08T14:55:47;38.83;;;11.87;;
20445;SDS011;10382;49.140;9.234;2023-02-08T14:58:25;26.03;;;8.77;;
20445;SDS011;10382;49.140;9.234;2023-02-08T15:00:54;47.13;;;13.10;;
20445;SDS011;10382;49.140;9.234;2023-02-08T15:03:26;38.53;;;11.27;;
20445;SDS011;10382;49.140;9.234;2023-02-08T15:06:12;36.30;;;10.80;;